Time;durP1;ratioP1;P1;durP2;ratioP2;P2;SDS_P1;SDS_P2;PMS_P1;PMS_P2;Temp;Humidity;BMP_temperature;BMP_pressure;BME280_temperature;BME280_humidity;BME280_pressure;Samples;Min_cycle;Max_cycle;Signal;HPM_P1;HPM_P2
2021/12/01 00:02:02;;;;;;;;;;;2.40;99.90;;;;;;5079387;28;19912;-84
2021/12/01 00:04:28;;;;;;;;;;;2.40;99.90;;;;;;5078990;28;19916;-84
2021/12/01 00:06:53;;;;;;;;;;;2.40;99.90;;;;;;5079342;28;19930;-84
2021/12/01 00:09:19;;;;;;;;;;;2.50;99.90;;;;;;5078829;28;19924;-84
2021/12/01 00:11:44;;;;;;;;;;;2.50;99.90;;;;;;5079306;28;19982;-84
2021/12/01 00:14:10;;;;;;;;;;;2.50;99.90;;;;;;5076941;28;19912;-83
2021/12/01 00:16:36;;;;;;;;;;;2.50;99.90;;;;;;5079273;28;19999;-84
2021/12/01 00:19:01;;;;;;;;;;;2.40;99.90;;;;;;5078631;28;19909;-84
2021/12/01 00:21:27;;;;;;;;;;;2.40;99.90;;;;;;5078977;28;19916;-84
2021/12/01 00:23:52;;;;;;;;;;;2.40;99.90;;;;;;5078652;28;19926;-84
2021/12/01 00:26:18;;;;;;;;;;;2.30;99.90;;;;;;5078970;28;20284;-84
2021/12/01 00:28:44;;;;;;;;;;;2.30;99.90;;;;;;5077427;28;19908;-84
2021/12/01 00:31:09;;;;;;;;;;;2.20;99.90;;;;;;5078678;28;19971;-83
2021/12/01 00:33:35;;;;;;;;;;;2.20;99.90;;;;;;5077414;28;19908;-83
2021/12/01 00:36:00;;;;;;;;;;;2.20;99.90;;;;;;5078652;28;19912;-83
2021/12/01 00:38:28;;;;;;;;;;;2.20;99.90;;;;;;5078504;28;19915;-83
2021/12/01 00:40:54;;;;;;;;;;;2.30;99.90;;;;;;5078720;28;19959;-83
2021/12/01 00:43:20;;;;;;;;;;;2.30;99.90;;;;;;5078394;28;19909;-83
2021/12/01 00:46:08;;;;;;;;;;;2.30;99.90;;;;;;5078427;28;19958;-83
2021/12/01 00:48:34;;;;;;;;;;;2.40;99.90;;;;;;5078261;28;20008;-83
2021/12/01 00:50:59;;;;;;;;;;;2.40;99.90;;;;;;5078148;28;19948;-83
2021/12/01 00:53:25;;;;;;;;;;;2.40;99.90;;;;;;5078405;28;19908;-83
2021/12/01 00:55:51;;;;;;;;;;;2.50;99.90;;;;;;5078347;28;19956;-83
2021/12/01 00:58:16;;;;;;;;;;;2.50;99.90;;;;;;5111003;28;19930;-83
2021/12/01 01:00:43;;;;;;;;;;;2.50;99.90;;;;;;5078056;28;19957;-85
2021/12/01 01:03:09;;;;;;;;;;;2.50;99.90;;;;;;5078113;28;20015;-85
2021/12/01 01:05:34;;;;;;;;;;;2.50;99.90;;;;;;5078086;28;19948;-85
2021/12/01 01:08:00;;;;;;;;;;;2.60;99.90;;;;;;5078048;28;19931;-85
2021/12/01 01:18:26;;;;;;;;;;;2.60;99.90;;;;;;5077743;28;19962;-85
2021/12/01 01:20:51;;;;;;;;;;;2.70;99.90;;;;;;5077745;28;19912;-85
2021/12/01 01:23:17;;;;;;;;;;;2.70;99.90;;;;;;5077836;28;19915;-85
2021/12/01 01:25:42;;;;;;;;;;;2.70;99.90;;;;;;5076481;28;19919;-85
2021/12/01 01:28:08;;;;;;;;;;;2.70;99.90;;;;;;5077854;28;19994;-85
2021/12/01 01:30:33;;;;;;;;;;;2.70;99.90;;;;;;5077502;28;19913;-84
2021/12/01 01:32:59;;;;;;;;;;;2.70;99.90;;;;;;5077761;28;20014;-84
2021/12/01 01:35:25;;;;;;;;;;;2.70;99.90;;;;;;5077722;28;19908;-84
2021/12/01 01:37:50;;;;;;;;;;;2.70;99.90;;;;;;5109305;28;20007;-83
2021/12/01 01:40:16;;;;;;;;;;;2.80;99.90;;;;;;5076242;28;19997;-84
2021/12/01 01:42:42;;;;;;;;;;;2.70;99.90;;;;;;5110385;28;20379;-83
2021/12/01 01:45:08;;;;;;;;;;;2.80;99.90;;;;;;5077396;28;19908;-83
2021/12/01 01:47:33;;;;;;;;;;;2.80;99.90;;;;;;5076330;28;20455;-83
2021/12/01 01:52:28;;;;;;;;;;;2.80;99.90;;;;;;5077631;28;19908;-84
2021/12/01 01:54:54;;;;;;;;;;;2.80;99.90;;;;;;5077332;28;19912;-85
2021/12/01 01:57:20;;;;;;;;;;;2.80;99.90;;;;;;5077466;28;19908;-84
2021/12/01 01:59:46;;;;;;;;;;;2.80;99.90;;;;;;5076552;28;19908;-84
2021/12/01 02:02:12;;;;;;;;;;;2.80;99.90;;;;;;5081664;28;19908;-84
2021/12/01 02:04:38;;;;;;;;;;;2.80;99.90;;;;;;5081172;28;20396;-83
2021/12/01 02:07:04;;;;;;;;;;;2.80;99.90;;;;;;5081588;28;19908;-83
2021/12/01 02:09:30;;;;;;;;;;;2.80;99.90;;;;;;5081128;28;20007;-84
2021/12/01 02:11:57;;;;;;;;;;;2.80;99.90;;;;;;5081438;28;19943;-83
2021/12/01 02:14:23;;;;;;;;;;;2.80;99.90;;;;;;5081204;28;19908;-84
2021/12/01 02:16:49;;;;;;;;;;;2.90;99.90;;;;;;5081493;28;19909;-84
2021/12/01 02:19:15;;;;;;;;;;;2.90;99.90;;;;;;5080872;28;19909;-83
2021/12/01 02:21:41;;;;;;;;;;;2.80;99.90;;;;;;5081253;28;19960;-84
2021/12/01 02:24:08;;;;;;;;;;;2.90;99.90;;;;;;5080973;28;19920;-84
2021/12/01 02:26:38;;;;;;;;;;;2.90;99.90;;;;;;5079875;28;19948;-84
2021/12/01 02:29:06;;;;;;;;;;;2.90;99.90;;;;;;5079739;28;19908;-85
2021/12/01 02:31:36;;;;;;;;;;;2.90;99.90;;;;;;5080834;28;19993;-84
2021/12/01 02:34:05;;;;;;;;;;;3.00;99.90;;;;;;5080918;28;20360;-85
2021/12/01 02:36:31;;;;;;;;;;;3.00;99.90;;;;;;5079589;28;20403;-84
2021/12/01 02:38:56;;;;;;;;;;;3.00;99.90;;;;;;5080981;28;19908;-84
2021/12/01 02:41:29;;;;;;;;;;;3.10;99.90;;;;;;5080740;28;19915;-84
2021/12/01 02:43:56;;;;;;;;;;;3.10;99.90;;;;;;5080633;28;19912;-83
2021/12/01 02:46:21;;;;;;;;;;;3.10;99.90;;;;;;5080433;28;20288;-83
2021/12/01 02:48:47;;;;;;;;;;;3.10;99.90;;;;;;5080496;28;19962;-83
2021/12/01 02:51:13;;;;;;;;;;;3.10;99.90;;;;;;5079110;28;19913;-83
2021/12/01 02:53:39;;;;;;;;;;;3.10;99.90;;;;;;5080736;28;19909;-83
2021/12/01 02:56:06;;;;;;;;;;;3.10;99.90;;;;;;5080453;28;19974;-84
2021/12/01 02:58:32;;;;;;;;;;;3.20;99.90;;;;;;5079572;28;19912;-84
2021/12/01 03:00:59;;;;;;;;;;;3.10;99.90;;;;;;5080128;28;19908;-83
2021/12/01 03:03:25;;;;;;;;;;;3.20;99.90;;;;;;5080141;28;19909;-83
2021/12/01 03:05:51;;;;;;;;;;;3.20;99.90;;;;;;5080180;28;19919;-84
2021/12/01 03:08:17;;;;;;;;;;;3.20;99.90;;;;;;5080241;28;19995;-83
2021/12/01 03:10:48;;;;;;;;;;;3.20;99.90;;;;;;5079923;28;19912;-83
2021/12/01 03:13:14;;;;;;;;;;;3.20;99.90;;;;;;5078077;28;20380;-83
2021/12/01 03:15:40;;;;;;;;;;;3.20;99.90;;;;;;5079930;28;19962;-84
2021/12/01 03:18:06;;;;;;;;;;;3.30;99.90;;;;;;5078731;28;20514;-83
2021/12/01 03:20:31;;;;;;;;;;;3.30;99.90;;;;;;5078893;28;20376;-83
2021/12/01 03:22:57;;;;;;;;;;;3.30;99.90;;;;;;5080157;28;19948;-83
2021/12/01 03:25:23;;;;;;;;;;;3.30;99.90;;;;;;5079659;28;19920;-83
2021/12/01 03:27:49;;;;;;;;;;;3.30;99.90;;;;;;5080053;28;19908;-83
2021/12/01 03:30:15;;;;;;;;;;;3.40;99.90;;;;;;5079712;28;19913;-83
2021/12/01 03:32:41;;;;;;;;;;;3.40;99.90;;;;;;5075188;28;19913;-82
2021/12/01 03:35:07;;;;;;;;;;;3.40;99.90;;;;;;5079780;28;19909;-81
2021/12/01 03:37:33;;;;;;;;;;;3.40;99.90;;;;;;5079930;28;19916;-83
2021/12/01 03:39:59;;;;;;;;;;;3.40;99.90;;;;;;5078392;28;19908;-81
2021/12/01 03:42:25;;;;;;;;;;;3.50;99.90;;;;;;5079841;28;19908;-83
2021/12/01 03:44:52;;;;;;;;;;;3.40;99.90;;;;;;5079514;28;19952;-84
2021/12/01 03:47:17;;;;;;;;;;;3.40;99.90;;;;;;5078410;28;20017;-83
2021/12/01 03:49:43;;;;;;;;;;;3.40;99.90;;;;;;5079289;28;19962;-84
2021/12/01 03:52:14;;;;;;;;;;;3.40;99.90;;;;;;5078277;28;19909;-83
2021/12/01 03:54:40;;;;;;;;;;;3.40;99.90;;;;;;5078066;28;19940;-83
2021/12/01 03:57:05;;;;;;;;;;;3.40;99.90;;;;;;5079595;28;20426;-83
2021/12/01 03:59:31;;;;;;;;;;;3.40;99.90;;;;;;5079212;28;19917;-82
2021/12/01 04:01:56;;;;;;;;;;;3.50;99.90;;;;;;5078077;28;20003;-81
2021/12/01 04:04:22;;;;;;;;;;;3.60;99.90;;;;;;5079168;28;20289;-82
2021/12/01 04:06:47;;;;;;;;;;;3.60;99.90;;;;;;5079314;28;20641;-82
2021/12/01 04:09:13;;;;;;;;;;;3.60;99.90;;;;;;5078980;28;20380;-81
2021/12/01 04:11:38;;;;;;;;;;;3.70;99.90;;;;;;5068390;28;19909;-81
2021/12/01 04:14:04;;;;;;;;;;;3.70;99.90;;;;;;5075755;28;19931;-81
2021/12/01 04:16:30;;;;;;;;;;;3.80;99.90;;;;;;5077720;28;19908;-81
2021/12/01 04:18:55;;;;;;;;;;;3.80;99.90;;;;;;5078708;28;19916;-81
2021/12/01 04:21:21;;;;;;;;;;;3.90;99.90;;;;;;5079004;28;19999;-81
2021/12/01 04:23:47;;;;;;;;;;;3.90;99.90;;;;;;5078501;28;20392;-81
2021/12/01 04:26:16;;;;;;;;;;;4.00;99.90;;;;;;5077496;28;19920;-81
2021/12/01 04:28:41;;;;;;;;;;;4.00;99.90;;;;;;5078871;28;19909;-81
2021/12/01 04:31:07;;;;;;;;;;;4.00;99.90;;;;;;5078710;28;19913;-82
2021/12/01 04:33:33;;;;;;;;;;;4.10;99.90;;;;;;5077111;28;19908;-81
2021/12/01 04:35:59;;;;;;;;;;;4.10;99.90;;;;;;5078750;28;19916;-82
2021/12/01 04:38:24;;;;;;;;;;;4.10;99.90;;;;;;5077507;28;19916;-81
2021/12/01 04:40:50;;;;;;;;;;;4.20;99.90;;;;;;5077304;28;19915;-81
2021/12/01 04:43:17;;;;;;;;;;;4.20;99.90;;;;;;5078389;28;19931;-81
2021/12/01 04:45:45;;;;;;;;;;;4.20;99.90;;;;;;5078985;28;20003;-81
2021/12/01 04:48:10;;;;;;;;;;;4.20;99.90;;;;;;5077275;28;19909;-82
2021/12/01 04:50:36;;;;;;;;;;;4.20;99.90;;;;;;5078393;28;19919;-82
2021/12/01 04:53:02;;;;;;;;;;;4.20;99.90;;;;;;5067876;28;19966;-82
2021/12/01 04:55:28;;;;;;;;;;;4.30;99.90;;;;;;5077064;28;20347;-81
2021/12/01 04:57:53;;;;;;;;;;;4.30;99.90;;;;;;5078071;28;20373;-81
2021/12/01 05:00:21;;;;;;;;;;;4.30;99.90;;;;;;5078228;28;19908;-81
2021/12/01 05:02:46;;;;;;;;;;;4.30;99.90;;;;;;5077833;28;19913;-81
2021/12/01 05:05:12;;;;;;;;;;;4.30;99.90;;;;;;5078218;28;19916;-81
2021/12/01 05:07:38;;;;;;;;;;;4.30;99.90;;;;;;5077861;28;20406;-81
2021/12/01 05:10:04;;;;;;;;;;;4.40;99.90;;;;;;5078057;28;20327;-82
2021/12/01 05:12:29;;;;;;;;;;;4.40;99.90;;;;;;5076779;28;19915;-81
2021/12/01 05:14:55;;;;;;;;;;;4.40;99.90;;;;;;5077837;28;19999;-82
2021/12/01 05:17:20;;;;;;;;;;;4.40;99.90;;;;;;5077860;28;19912;-82
2021/12/01 05:19:47;;;;;;;;;;;4.50;99.90;;;;;;5076675;28;20344;-81
2021/12/01 05:22:12;;;;;;;;;;;4.50;99.90;;;;;;5077760;28;19971;-82
2021/12/01 05:24:38;;;;;;;;;;;4.50;99.90;;;;;;5077679;28;19921;-83
2021/12/01 05:27:04;;;;;;;;;;;4.60;99.90;;;;;;5076315;28;19909;-83
2021/12/01 05:29:30;;;;;;;;;;;4.60;99.90;;;;;;5076365;28;19930;-82
2021/12/01 05:31:56;;;;;;;;;;;4.60;99.90;;;;;;5073143;28;20432;-82
2021/12/01 05:34:21;;;;;;;;;;;4.60;99.90;;;;;;5075569;28;19913;-82
2021/12/01 05:36:47;;;;;;;;;;;4.60;99.90;;;;;;5077347;28;19918;-82
2021/12/01 05:39:13;;;;;;;;;;;4.60;99.90;;;;;;5077787;28;19913;-81
2021/12/01 05:41:38;;;;;;;;;;;4.60;99.90;;;;;;5077434;28;19915;-81
2021/12/01 05:44:04;;;;;;;;;;;4.60;99.90;;;;;;5077654;28;19959;-81
2021/12/01 05:46:30;;;;;;;;;;;4.60;99.90;;;;;;5077368;28;19909;-81
2021/12/01 05:48:56;;;;;;;;;;;4.60;99.90;;;;;;5076082;28;19912;-81
2021/12/01 05:51:21;;;;;;;;;;;4.60;99.90;;;;;;5077447;28;19916;-81
2021/12/01 05:53:48;;;;;;;;;;;4.70;99.90;;;;;;5077561;28;20368;-81
2021/12/01 05:56:14;;;;;;;;;;;4.70;99.90;;;;;;5077378;28;19916;-81
2021/12/01 05:58:40;;;;;;;;;;;4.70;99.90;;;;;;5077657;28;19912;-81
2021/12/01 06:01:06;;;;;;;;;;;4.80;99.90;;;;;;5077144;28;19915;-81
2021/12/01 06:03:32;;;;;;;;;;;4.80;99.90;;;;;;5075889;28;19931;-81
2021/12/01 06:05:57;;;;;;;;;;;4.80;99.90;;;;;;5077354;28;20004;-81
2021/12/01 06:08:23;;;;;;;;;;;4.80;99.90;;;;;;5075884;28;19912;-81
2021/12/01 06:10:49;;;;;;;;;;;4.80;99.90;;;;;;5076292;28;19913;-81
2021/12/01 06:13:16;;;;;;;;;;;4.80;99.90;;;;;;5075884;28;19916;-81
2021/12/01 06:15:42;;;;;;;;;;;4.80;99.90;;;;;;5075708;28;20327;-81
2021/12/01 06:18:08;;;;;;;;;;;4.80;99.90;;;;;;5077167;28;19908;-81
2021/12/01 06:20:33;;;;;;;;;;;4.80;99.90;;;;;;5077051;28;19999;-81
2021/12/01 06:22:59;;;;;;;;;;;4.90;99.90;;;;;;5075929;28;19999;-81
2021/12/01 06:25:25;;;;;;;;;;;4.90;99.90;;;;;;5076865;28;19920;-81
2021/12/01 06:27:51;;;;;;;;;;;5.00;99.90;;;;;;5077101;28;19993;-82
2021/12/01 06:30:17;;;;;;;;;;;5.00;99.90;;;;;;5076869;28;19912;-82
2021/12/01 06:32:42;;;;;;;;;;;5.10;99.90;;;;;;5076907;28;19915;-82
2021/12/01 06:35:08;;;;;;;;;;;5.10;99.90;;;;;;5077029;28;19916;-82
2021/12/01 06:37:34;;;;;;;;;;;5.20;99.90;;;;;;5077171;28;20281;-82
2021/12/01 06:39:59;;;;;;;;;;;5.20;99.90;;;;;;5075721;28;19908;-82
2021/12/01 06:42:25;;;;;;;;;;;5.20;99.90;;;;;;5077185;28;20053;-81
2021/12/01 06:44:50;;;;;;;;;;;5.20;99.90;;;;;;5076873;28;19912;-82
2021/12/01 06:47:17;;;;;;;;;;;5.20;99.90;;;;;;5078620;28;19915;-82
2021/12/01 06:49:45;;;;;;;;;;;5.20;99.90;;;;;;5079095;28;19919;-83
2021/12/01 06:52:12;;;;;;;;;;;5.30;99.90;;;;;;5079425;28;19912;-83
2021/12/01 06:54:38;;;;;;;;;;;5.40;99.90;;;;;;5080491;28;19908;-83
2021/12/01 06:57:04;;;;;;;;;;;5.40;99.90;;;;;;5080642;28;19995;-83
2021/12/01 06:59:29;;;;;;;;;;;5.50;99.90;;;;;;5080223;28;19954;-83
2021/12/01 07:01:55;;;;;;;;;;;5.50;99.90;;;;;;5080554;28;19915;-82
2021/12/01 07:04:20;;;;;;;;;;;5.60;99.90;;;;;;5078879;28;19912;-83
2021/12/01 07:06:46;;;;;;;;;;;5.60;99.90;;;;;;5080538;28;19999;-83
2021/12/01 07:09:17;;;;;;;;;;;5.70;99.90;;;;;;5080057;28;19909;-83
2021/12/01 07:11:43;;;;;;;;;;;5.80;99.90;;;;;;5080481;28;19914;-83
2021/12/01 07:14:09;;;;;;;;;;;5.80;99.90;;;;;;5080237;28;20017;-83
2021/12/01 07:16:34;;;;;;;;;;;5.90;99.90;;;;;;5080237;28;19908;-83
2021/12/01 07:19:00;;;;;;;;;;;5.90;99.90;;;;;;5079739;28;19915;-83
2021/12/01 07:21:26;;;;;;;;;;;6.00;99.90;;;;;;5080176;28;19912;-83
2021/12/01 07:23:51;;;;;;;;;;;6.00;99.90;;;;;;5068303;28;19921;-82
2021/12/01 07:26:17;;;;;;;;;;;6.10;99.90;;;;;;5112667;28;19915;-83
2021/12/01 07:28:42;;;;;;;;;;;6.10;99.90;;;;;;5078489;28;19908;-83
2021/12/01 07:31:08;;;;;;;;;;;6.30;99.90;;;;;;5079981;28;19920;-83
2021/12/01 07:33:34;;;;;;;;;;;6.40;99.90;;;;;;5079651;28;19909;-82
2021/12/01 07:36:00;;;;;;;;;;;6.50;99.90;;;;;;5079926;28;19908;-81
2021/12/01 07:38:25;;;;;;;;;;;6.50;99.90;;;;;;5079697;28;19915;-81
2021/12/01 07:40:52;;;;;;;;;;;6.50;99.90;;;;;;5079770;28;20015;-82
2021/12/01 07:43:17;;;;;;;;;;;6.50;99.90;;;;;;5078281;28;19995;-81
2021/12/01 07:45:44;;;;;;;;;;;6.50;99.90;;;;;;5079535;28;19956;-82
2021/12/01 07:48:13;;;;;;;;;;;6.40;99.90;;;;;;5078013;28;19909;-81
2021/12/01 07:50:39;;;;;;;;;;;6.40;99.90;;;;;;5078241;28;19916;-81
2021/12/01 07:53:07;;;;;;;;;;;6.30;99.90;;;;;;5077551;28;20024;-82
2021/12/01 07:55:32;;;;;;;;;;;6.30;99.90;;;;;;5079711;28;20010;-82
2021/12/01 07:57:58;;;;;;;;;;;6.20;99.90;;;;;;5077214;28;19963;-82
2021/12/01 08:00:24;;;;;;;;;;;6.20;99.90;;;;;;5078007;28;20560;-82
2021/12/01 08:02:49;;;;;;;;;;;6.10;99.90;;;;;;5079106;28;19999;-82
2021/12/01 08:05:15;;;;;;;;;;;6.10;99.90;;;;;;5079465;28;19909;-81
2021/12/01 08:07:40;;;;;;;;;;;6.10;99.90;;;;;;5077668;28;19966;-81
2021/12/01 08:10:07;;;;;;;;;;;6.10;99.90;;;;;;5079124;28;19912;-81
2021/12/01 08:12:34;;;;;;;;;;;6.10;99.90;;;;;;5078924;28;19962;-81
2021/12/01 08:15:00;;;;;;;;;;;6.20;99.90;;;;;;5079101;28;19958;-82
2021/12/01 08:17:26;;;;;;;;;;;6.30;99.90;;;;;;5077493;28;19920;-82
2021/12/01 08:19:51;;;;;;;;;;;6.50;99.90;;;;;;5079022;28;19909;-78
2021/12/01 08:22:17;;;;;;;;;;;6.60;99.90;;;;;;5078876;28;19909;-78
2021/12/01 08:24:42;;;;;;;;;;;6.70;99.90;;;;;;5064983;28;19928;-78
2021/12/01 08:27:08;;;;;;;;;;;6.80;99.90;;;;;;5076061;28;20410;-78
2021/12/01 08:29:34;;;;;;;;;;;6.90;99.90;;;;;;5067339;28;19939;-80
2021/12/01 08:31:59;;;;;;;;;;;7.00;99.90;;;;;;5066594;28;19919;-78
2021/12/01 08:34:25;;;;;;;;;;;7.20;99.90;;;;;;5067111;28;19916;-78
2021/12/01 08:36:51;;;;;;;;;;;7.30;99.90;;;;;;5078338;28;19919;-77
2021/12/01 08:39:17;;;;;;;;;;;7.50;99.90;;;;;;5078633;28;19908;-78
2021/12/01 08:41:43;;;;;;;;;;;7.80;99.90;;;;;;5077161;28;19916;-79
2021/12/01 08:44:10;;;;;;;;;;;8.10;99.90;;;;;;5074859;28;19908;-77
2021/12/01 08:46:35;;;;;;;;;;;8.30;99.90;;;;;;5075776;28;20065;-80
2021/12/01 08:49:01;;;;;;;;;;;8.50;99.90;;;;;;5077666;28;19946;-79
2021/12/01 08:51:27;;;;;;;;;;;8.60;99.90;;;;;;5077594;28;19912;-77
2021/12/01 08:53:53;;;;;;;;;;;8.70;99.90;;;;;;5078127;28;19938;-77
2021/12/01 08:56:19;;;;;;;;;;;8.90;99.90;;;;;;5078150;28;19954;-77
2021/12/01 08:58:44;;;;;;;;;;;9.10;99.90;;;;;;5078284;28;19913;-78
2021/12/01 09:01:10;;;;;;;;;;;9.20;99.90;;;;;;5077944;28;19909;-77
2021/12/01 09:03:38;;;;;;;;;;;9.30;99.90;;;;;;5066436;28;19912;-80
2021/12/01 09:06:04;;;;;;;;;;;9.20;99.90;;;;;;5076087;28;19957;-80
2021/12/01 09:08:30;;;;;;;;;;;9.20;99.90;;;;;;5068687;28;19913;-80
2021/12/01 09:10:56;;;;;;;;;;;9.10;99.90;;;;;;5071154;28;19999;-78
2021/12/01 09:13:23;;;;;;;;;;;9.00;99.90;;;;;;5066860;28;19916;-78
2021/12/01 09:15:49;;;;;;;;;;;9.00;99.90;;;;;;5074688;28;19912;-77
2021/12/01 09:18:14;;;;;;;;;;;9.00;99.90;;;;;;5068844;28;19912;-76
2021/12/01 09:20:40;;;;;;;;;;;9.00;99.90;;;;;;5064432;28;19919;-77
2021/12/01 09:23:06;;;;;;;;;;;9.00;99.90;;;;;;5063795;28;20435;-82
2021/12/01 09:25:33;;;;;;;;;;;9.00;99.90;;;;;;5060638;28;20012;-77
2021/12/01 09:27:59;;;;;;;;;;;9.10;99.90;;;;;;5056951;28;19956;-78
2021/12/01 09:30:25;;;;;;;;;;;9.40;99.90;;;;;;5058151;28;19913;-80
2021/12/01 09:32:50;;;;;;;;;;;9.60;99.90;;;;;;5070051;28;19939;-78
2021/12/01 09:35:16;;;;;;;;;;;9.80;99.90;;;;;;5076948;28;19978;-79
2021/12/01 09:37:42;;;;;;;;;;;10.00;99.90;;;;;;5092350;28;19909;-84
2021/12/01 09:40:13;;;;;;;;;;;10.20;99.90;;;;;;5076406;28;19948;-82
2021/12/01 09:42:51;;;;;;;;;;;10.30;99.90;;;;;;5076212;28;19908;-82
2021/12/01 09:45:18;;;;;;;;;;;10.40;99.90;;;;;;5077239;28;19943;-81
2021/12/01 09:47:44;;;;;;;;;;;10.60;99.90;;;;;;5077078;28;19908;-78
2021/12/01 09:50:10;;;;;;;;;;;10.60;99.90;;;;;;5077491;28;19919;-78
2021/12/01 09:52:36;;;;;;;;;;;10.70;99.90;;;;;;5077371;28;19993;-79
2021/12/01 09:55:02;;;;;;;;;;;10.80;99.90;;;;;;5075429;28;19909;-78
2021/12/01 09:57:27;;;;;;;;;;;11.00;99.90;;;;;;5076004;28;19909;-79
2021/12/01 09:59:53;;;;;;;;;;;11.10;99.90;;;;;;5077490;28;20312;-78
2021/12/01 10:02:19;;;;;;;;;;;11.20;99.90;;;;;;5075812;28;19908;-78
2021/12/01 10:04:45;;;;;;;;;;;11.30;99.90;;;;;;5070853;28;19947;-78
2021/12/01 10:07:14;;;;;;;;;;;11.40;99.90;;;;;;5070790;28;19930;-79
2021/12/01 10:09:41;;;;;;;;;;;11.50;99.90;;;;;;5077300;28;20013;-78
2021/12/01 10:12:07;;;;;;;;;;;11.60;99.90;;;;;;5077262;28;20364;-80
2021/12/01 10:14:32;;;;;;;;;;;11.60;99.90;;;;;;5075972;28;20280;-77
2021/12/01 10:16:58;;;;;;;;;;;11.70;99.90;;;;;;5076055;28;19908;-78
2021/12/01 10:19:25;;;;;;;;;;;11.70;99.90;;;;;;5072757;28;19913;-80
2021/12/01 10:21:51;;;;;;;;;;;11.70;99.90;;;;;;5073692;28;19920;-81
2021/12/01 10:24:18;;;;;;;;;;;11.70;99.90;;;;;;5081150;28;19974;-82
2021/12/01 10:26:47;;;;;;;;;;;11.70;99.90;;;;;;5081119;28;19943;-81
2021/12/01 10:29:14;;;;;;;;;;;11.80;99.90;;;;;;5081133;28;20339;-79
2021/12/01 10:31:44;;;;;;;;;;;11.80;99.90;;;;;;5075666;28;20461;-81
2021/12/01 10:34:15;;;;;;;;;;;11.70;99.90;;;;;;5079576;28;19912;-80
2021/12/01 10:36:41;;;;;;;;;;;11.70;99.90;;;;;;5064723;28;19995;-79
2021/12/01 10:39:07;;;;;;;;;;;11.70;99.90;;;;;;5081024;28;20397;-80
2021/12/01 10:41:36;;;;;;;;;;;11.60;99.90;;;;;;5071284;28;19912;-80
2021/12/01 10:44:12;;;;;;;;;;;11.60;99.90;;;;;;5079636;28;20383;-80
2021/12/01 10:46:42;;;;;;;;;;;11.60;99.90;;;;;;5079370;28;19909;-82
2021/12/01 10:49:08;;;;;;;;;;;11.60;99.90;;;;;;5080285;28;19908;-79
2021/12/01 10:51:36;;;;;;;;;;;11.60;99.90;;;;;;5080233;28;20007;-81
2021/12/01 10:54:02;;;;;;;;;;;11.60;99.90;;;;;;5074998;28;20027;-79
2021/12/01 10:56:28;;;;;;;;;;;11.50;99.90;;;;;;5070258;28;19908;-81
2021/12/01 10:58:53;;;;;;;;;;;11.50;99.90;;;;;;5080586;28;20004;-79
2021/12/01 11:01:20;;;;;;;;;;;11.50;99.90;;;;;;5080145;28;19951;-80
2021/12/01 11:03:46;;;;;;;;;;;11.50;99.90;;;;;;5080173;28;19914;-80
2021/12/01 11:06:13;;;;;;;;;;;11.50;99.90;;;;;;5080648;28;19948;-80
2021/12/01 11:08:40;;;;;;;;;;;11.50;99.90;;;;;;5082248;28;19908;-80
2021/12/01 11:11:08;;;;;;;;;;;11.60;99.90;;;;;;5079091;28;19919;-81
2021/12/01 11:13:34;;;;;;;;;;;11.60;99.90;;;;;;5078941;28;19955;-81
2021/12/01 11:16:01;;;;;;;;;;;11.60;99.90;;;;;;5080053;28;19967;-81
2021/12/01 11:18:28;;;;;;;;;;;11.60;99.90;;;;;;5078707;28;20007;-80
2021/12/01 11:20:55;;;;;;;;;;;11.70;99.90;;;;;;5080150;28;19915;-81
2021/12/01 11:23:22;;;;;;;;;;;11.80;99.90;;;;;;5080307;28;19958;-81
2021/12/01 11:25:49;;;;;;;;;;;11.80;99.90;;;;;;5080153;28;19916;-81
2021/12/01 11:28:16;;;;;;;;;;;11.90;99.90;;;;;;5078862;28;19908;-80
2021/12/01 11:30:44;;;;;;;;;;;12.00;99.90;;;;;;5078591;28;19912;-80
2021/12/01 11:33:13;;;;;;;;;;;12.00;99.90;;;;;;5078504;28;19908;-81
2021/12/01 11:35:39;;;;;;;;;;;12.10;99.90;;;;;;5078570;28;20371;-82
2021/12/01 11:38:05;;;;;;;;;;;12.10;99.90;;;;;;5079903;28;19967;-83
2021/12/01 11:40:31;;;;;;;;;;;12.20;99.90;;;;;;5078913;28;19919;-82
2021/12/01 11:42:57;;;;;;;;;;;12.10;99.90;;;;;;5078139;28;19913;-81
2021/12/01 11:45:23;;;;;;;;;;;12.20;99.90;;;;;;5079663;28;19909;-82
2021/12/01 11:47:49;;;;;;;;;;;12.20;99.90;;;;;;5061507;28;20245;-81
2021/12/01 11:50:17;;;;;;;;;;;12.30;99.90;;;;;;5074999;28;19935;-81
2021/12/01 11:52:52;;;;;;;;;;;12.20;99.90;;;;;;5078951;28;19915;-82
2021/12/01 11:55:37;;;;;;;;;;;12.20;99.90;;;;;;5078813;28;19914;-81
2021/12/01 11:58:03;;;;;;;;;;;12.10;99.90;;;;;;5078923;28;19909;-82
2021/12/01 12:00:45;;;;;;;;;;;12.30;99.90;;;;;;5074591;28;19920;-80
2021/12/01 12:03:24;;;;;;;;;;;12.20;99.90;;;;;;5057765;28;19912;-80
2021/12/01 12:06:08;;;;;;;;;;;12.30;99.90;;;;;;5074440;28;19909;-80
2021/12/01 12:08:52;;;;;;;;;;;12.20;99.90;;;;;;5078735;28;19955;-81
2021/12/01 12:11:37;;;;;;;;;;;12.10;99.90;;;;;;5078292;28;19970;-82
2021/12/01 12:14:17;;;;;;;;;;;11.90;99.90;;;;;;5077457;28;19908;-81
2021/12/01 12:17:00;;;;;;;;;;;11.60;99.90;;;;;;5078549;28;19908;-81
2021/12/01 12:19:45;;;;;;;;;;;11.30;99.90;;;;;;5069503;28;19913;-79
2021/12/01 12:22:11;;;;;;;;;;;11.00;99.90;;;;;;5068567;28;19943;-80
2021/12/01 12:24:45;;;;;;;;;;;10.80;99.90;;;;;;5060168;28;19928;-80
2021/12/01 12:27:29;;;;;;;;;;;10.70;99.90;;;;;;5061337;28;19952;-80
2021/12/01 12:29:57;;;;;;;;;;;10.60;99.90;;;;;;5075904;28;19912;-78
2021/12/01 12:32:25;;;;;;;;;;;10.50;99.90;;;;;;5078539;28;19977;-80
2021/12/01 12:34:54;;;;;;;;;;;10.40;99.90;;;;;;5078450;28;20000;-80
2021/12/01 12:37:27;;;;;;;;;;;10.40;99.90;;;;;;5079079;28;19908;-81
2021/12/01 12:39:53;;;;;;;;;;;10.40;99.90;;;;;;5078735;28;19966;-81
2021/12/01 12:42:19;;;;;;;;;;;10.30;99.90;;;;;;5078718;28;19932;-80
2021/12/01 12:44:46;;;;;;;;;;;10.40;99.90;;;;;;5074861;28;19931;-83
2021/12/01 12:47:14;;;;;;;;;;;10.40;99.90;;;;;;5077661;28;19953;-83
2021/12/01 12:49:41;;;;;;;;;;;10.50;99.90;;;;;;5076600;28;19916;-82
2021/12/01 12:52:28;;;;;;;;;;;10.60;99.90;;;;;;5078625;28;19909;-84
2021/12/01 12:54:55;;;;;;;;;;;10.60;99.90;;;;;;5078144;28;19908;-80
2021/12/01 12:57:25;;;;;;;;;;;10.50;99.90;;;;;;5077770;28;19920;-81
2021/12/01 13:00:10;;;;;;;;;;;10.60;99.90;;;;;;5076485;28;19959;-82
2021/12/01 13:02:36;;;;;;;;;;;10.60;99.90;;;;;;5077248;28;19945;-79
2021/12/01 13:05:04;;;;;;;;;;;10.60;99.90;;;;;;5071176;28;19912;-79
2021/12/01 13:07:40;;;;;;;;;;;10.60;99.90;;;;;;5077360;28;19958;-81
2021/12/01 13:10:21;;;;;;;;;;;10.60;99.90;;;;;;5069257;28;20335;-78
2021/12/01 13:12:53;;;;;;;;;;;10.50;99.90;;;;;;5078029;28;20280;-86
2021/12/01 13:15:20;;;;;;;;;;;10.50;99.90;;;;;;5078231;28;20369;-83
2021/12/01 13:17:47;;;;;;;;;;;10.40;99.90;;;;;;5076548;28;20292;-81
2021/12/01 13:20:12;;;;;;;;;;;10.40;99.90;;;;;;5072533;28;19919;-84
2021/12/01 13:22:38;;;;;;;;;;;10.30;99.90;;;;;;5065926;28;19908;-82
2021/12/01 13:25:04;;;;;;;;;;;10.30;99.90;;;;;;5077426;28;19960;-78
2021/12/01 13:27:41;;;;;;;;;;;10.30;99.90;;;;;;5059438;28;19913;-82
2021/12/01 13:30:10;;;;;;;;;;;10.30;99.90;;;;;;5072729;28;20376;-83
2021/12/01 13:32:37;;;;;;;;;;;10.30;99.90;;;;;;5065112;28;19935;-82
2021/12/01 13:35:03;;;;;;;;;;;10.30;99.90;;;;;;5071379;28;19908;-82
2021/12/01 13:37:29;;;;;;;;;;;10.30;99.90;;;;;;5066788;28;19908;-82
2021/12/01 13:39:54;;;;;;;;;;;10.20;99.90;;;;;;5077630;28;19958;-82
2021/12/01 13:42:24;;;;;;;;;;;10.20;99.90;;;;;;5076525;28;19908;-82
2021/12/01 13:44:51;;;;;;;;;;;10.20;99.90;;;;;;5077580;28;19912;-81
2021/12/01 13:47:18;;;;;;;;;;;10.20;99.90;;;;;;5075653;28;19908;-82
2021/12/01 13:49:45;;;;;;;;;;;10.20;99.90;;;;;;5076722;28;19915;-82
2021/12/01 13:52:26;;;;;;;;;;;10.20;99.90;;;;;;5077274;28;19948;-82
2021/12/01 13:54:52;;;;;;;;;;;10.20;99.90;;;;;;5076887;28;19908;-82
2021/12/01 13:57:18;;;;;;;;;;;10.20;99.90;;;;;;5076555;28;20008;-82
2021/12/01 13:59:43;;;;;;;;;;;10.20;99.90;;;;;;5075486;28;19954;-82
2021/12/01 14:02:10;;;;;;;;;;;10.20;99.90;;;;;;5075866;28;19914;-81
2021/12/01 14:04:36;;;;;;;;;;;10.20;99.90;;;;;;5077380;28;19915;-82
2021/12/01 14:07:01;;;;;;;;;;;10.30;99.90;;;;;;5077547;28;19947;-82
2021/12/01 14:09:38;;;;;;;;;;;10.30;99.90;;;;;;5074817;28;19919;-83
2021/12/01 14:12:09;;;;;;;;;;;10.30;99.90;;;;;;5077189;28;19913;-83
2021/12/01 14:14:35;;;;;;;;;;;10.30;99.90;;;;;;5076026;28;19908;-82
2021/12/01 14:17:02;;;;;;;;;;;10.30;99.90;;;;;;5077269;28;19938;-83
2021/12/01 14:19:28;;;;;;;;;;;10.40;99.90;;;;;;5075859;28;19924;-83
2021/12/01 14:21:54;;;;;;;;;;;10.30;99.90;;;;;;5076657;28;19932;-83
2021/12/01 14:24:26;;;;;;;;;;;10.40;99.90;;;;;;5071725;28;19929;-83
2021/12/01 14:26:56;;;;;;;;;;;10.40;99.90;;;;;;5060103;28;20385;-83
2021/12/01 14:29:21;;;;;;;;;;;10.40;99.90;;;;;;5077302;28;19939;-83
2021/12/01 14:31:56;;;;;;;;;;;10.40;99.90;;;;;;5076567;28;19924;-83
2021/12/01 14:34:24;;;;;;;;;;;10.50;99.90;;;;;;5076780;28;19912;-83
2021/12/01 14:36:53;;;;;;;;;;;10.50;99.90;;;;;;5075529;28;19915;-83